createdAt,value
2024-02-07T00:03:08.557Z,992.625
2024-02-07T00:23:07.677Z,992.319
2024-02-07T00:43:07.932Z,991.88
2024-02-07T01:03:08.889Z,991.632
2024-02-07T01:23:07.949Z,991.463
2024-02-07T01:43:08.423Z,992.314
2024-02-07T02:03:08.631Z,992.626
2024-02-07T02:23:08.134Z,992.79
2024-02-07T02:43:07.639Z,993.152
2024-02-07T03:03:08.668Z,993.167
2024-02-07T03:23:07.833Z,993.182
2024-02-07T03:43:08.161Z,993.209
2024-02-07T04:03:08.241Z,993.467
2024-02-07T04:23:07.284Z,993.805
2024-02-07T04:43:07.564Z,994.1
2024-02-07T05:03:08.615Z,994.282
2024-02-07T05:23:07.866Z,994.577
2024-02-07T05:43:07.326Z,994.886
2024-02-07T06:03:08.669Z,995.092
2024-02-07T06:23:07.858Z,994.899
2024-02-07T06:43:07.951Z,995.318
2024-02-07T07:03:09.187Z,995.377
2024-02-07T07:23:17.653Z,995.483
2024-02-07T07:43:08.023Z,995.688
2024-02-07T08:03:08.298Z,995.894
2024-02-07T08:23:07.688Z,996.108
2024-02-07T08:43:08.173Z,996.144
2024-02-07T09:03:08.241Z,996.041
2024-02-07T09:23:07.847Z,996.174
2024-02-07T09:43:08.170Z,996.256
2024-02-07T10:03:08.837Z,996.664
2024-02-07T10:23:08.427Z,996.899
2024-02-07T10:43:07.632Z,996.774
2024-02-07T11:03:08.811Z,996.8
2024-02-07T11:23:08.015Z,996.685
2024-02-07T11:43:07.331Z,996.426
2024-02-07T12:03:08.435Z,996.6
2024-02-07T12:23:07.850Z,996.511
2024-02-07T12:43:08.285Z,996.597
2024-02-07T13:03:08.656Z,996.467
2024-02-07T13:23:08.139Z,996.31
2024-02-07T13:43:07.520Z,996.219
2024-02-07T14:03:08.783Z,996.306
2024-02-07T14:23:08.273Z,996.235
2024-02-07T14:43:07.715Z,996.203
2024-02-07T15:03:08.989Z,996.257
2024-02-07T15:23:07.431Z,996.206
2024-02-07T15:43:07.794Z,996.167
2024-02-07T16:03:09.332Z,995.993
2024-02-07T16:23:07.626Z,995.836
2024-02-07T16:43:08.041Z,995.895
2024-02-07T17:03:09.358Z,996.053
2024-02-07T17:23:07.898Z,995.877
2024-02-07T17:43:08.311Z,995.695
2024-02-07T18:03:08.783Z,995.694
2024-02-07T18:23:08.294Z,995.713
2024-02-07T18:43:07.640Z,995.546
2024-02-07T19:03:08.769Z,995.623
2024-02-07T19:23:08.007Z,995.502
2024-02-07T19:43:07.349Z,995.276
2024-02-07T20:03:08.725Z,995.197
2024-02-07T20:23:25.100Z,995.005
2024-02-07T20:43:08.126Z,994.877
2024-02-07T21:03:09.280Z,994.923
2024-02-07T21:23:07.759Z,994.828
2024-02-07T21:43:08.211Z,994.809
2024-02-07T22:03:08.577Z,994.886
2024-02-07T22:23:08.014Z,994.82
2024-02-07T22:43:07.541Z,994.773
2024-02-07T23:03:09.380Z,994.569
2024-02-07T23:23:07.786Z,994.627
2024-02-07T23:43:07.797Z,994.567
